sensor_id;sensor_type;location;lat;lon;timestamp;temperature;humidity
63051;SHT30;49136;47.416;19.402;2023-02-03T00:00:26;-1.34;99.99
63051;SHT30;49136;47.416;19.402;2023-02-03T00:02:53;-1.46;99.99
63051;SHT30;49136;47.416;19.402;2023-02-03T00:08:40;-1.82;99.99
63051;SHT30;49136;47.416;19.402;2023-02-03T00:11:06;-1.92;99.99
63051;SHT30;49136;47.416;19.402;2023-02-03T00:13:34;-2.05;99.99
63051;SHT30;49136;47.416;19.402;2023-02-03T00:16:06;-2.15;99.99
63051;SHT30;49136;47.416;19.402;2023-02-03T00:18:32;-2.05;99.99
63051;SHT30;49136;47.416;19.402;2023-02-03T00:20:57;-1.97;99.99
63051;SHT30;49136;47.416;19.402;2023-02-03T00:23:23;-1.98;99.99
63051;SHT30;49136;47.416;19.402;2023-02-03T00:26:20;-1.85;99.99
63051;SHT30;49136;47.416;19.402;2023-02-03T00:28:45;-1.81;99.99
63051;SHT30;49136;47.416;19.402;2023-02-03T00:31:20;-1.81;99.99
63051;SHT30;49136;47.416;19.402;2023-02-03T00:33:47;-1.68;99.99
63051;SHT30;49136;47.416;19.402;2023-02-03T00:36:24;-1.80;99.99
63051;SHT30;49136;47.416;19.402;2023-02-03T00:38:50;-1.80;99.99
63051;SHT30;49136;47.416;19.402;2023-02-03T00:41:16;-1.87;99.99
63051;SHT30;49136;47.416;19.402;2023-02-03T00:43:42;-1.92;99.99
63051;SHT30;49136;47.416;19.402;2023-02-03T00:49:28;-1.73;99.99
63051;SHT30;49136;47.416;19.402;2023-02-03T00:51:54;-1.66;99.99
63051;SHT30;49136;47.416;19.402;2023-02-03T00:54:27;-1.45;99.99
63051;SHT30;49136;47.416;19.402;2023-02-03T00:56:53;-1.50;99.99
63051;SHT30;49136;47.416;19.402;2023-02-03T00:59:18;-1.40;99.99
63051;SHT30;49136;47.416;19.402;2023-02-03T01:01:43;-1.36;99.99
63051;SHT30;49136;47.416;19.402;2023-02-03T01:04:11;-1.27;99.99
63051;SHT30;49136;47.416;19.402;2023-02-03T01:06:40;-1.39;99.99
63051;SHT30;49136;47.416;19.402;2023-02-03T01:09:05;-1.47;99.99
63051;SHT30;49136;47.416;19.402;2023-02-03T01:11:31;-1.32;99.99
63051;SHT30;49136;47.416;19.402;2023-02-03T01:16:57;-1.46;99.99
63051;SHT30;49136;47.416;19.402;2023-02-03T01:19:24;-1.56;99.99
63051;SHT30;49136;47.416;19.402;2023-02-03T01:21:50;-1.45;99.99
63051;SHT30;49136;47.416;19.402;2023-02-03T01:24:16;-1.32;99.99
63051;SHT30;49136;47.416;19.402;2023-02-03T01:26:42;-1.45;99.99
63051;SHT30;49136;47.416;19.402;2023-02-03T01:29:08;-1.47;99.99
63051;SHT30;49136;47.416;19.402;2023-02-03T01:31:36;-1.40;99.99
63051;SHT30;49136;47.416;19.402;2023-02-03T01:34:04;-1.35;99.99
63051;SHT30;49136;47.416;19.402;2023-02-03T01:36:41;-1.11;99.99
63051;SHT30;49136;47.416;19.402;2023-02-03T01:39:06;-1.03;99.99
63051;SHT30;49136;47.416;19.402;2023-02-03T01:41:35;-1.14;99.99
63051;SHT30;49136;47.416;19.402;2023-02-03T01:44:31;-1.28;99.99
63051;SHT30;49136;47.416;19.402;2023-02-03T01:46:53;-1.31;99.99
63051;SHT30;49136;47.416;19.402;2023-02-03T01:49:22;-1.42;99.99
63051;SHT30;49136;47.416;19.402;2023-02-03T01:51:49;-1.49;99.99
63051;SHT30;49136;47.416;19.402;2023-02-03T01:54:26;-1.34;99.99
63051;SHT30;49136;47.416;19.402;2023-02-03T01:57:02;-1.01;98.50
63051;SHT30;49136;47.416;19.402;2023-02-03T01:59:30;-1.16;98.26
63051;SHT30;49136;47.416;19.402;2023-02-03T02:01:57;-1.36;98.39
63051;SHT30;49136;47.416;19.402;2023-02-03T02:07:27;-1.36;98.64
63051;SHT30;49136;47.416;19.402;2023-02-03T02:09:54;-1.45;98.51
63051;SHT30;49136;47.416;19.402;2023-02-03T02:12:20;-1.60;98.59
63051;SHT30;49136;47.416;19.402;2023-02-03T02:14:46;-1.80;99.04
63051;SHT30;49136;47.416;19.402;2023-02-03T02:23:49;-1.94;99.74
63051;SHT30;49136;47.416;19.402;2023-02-03T02:32:03;-1.99;99.81
63051;SHT30;49136;47.416;19.402;2023-02-03T02:42:46;-2.33;99.99
63051;SHT30;49136;47.416;19.402;2023-02-03T02:45:22;-2.41;99.99
63051;SHT30;49136;47.416;19.402;2023-02-03T02:51:14;-2.58;99.99
63051;SHT30;49136;47.416;19.402;2023-02-03T02:54:05;-2.58;99.99
63051;SHT30;49136;47.416;19.402;2023-02-03T02:56:53;-2.16;99.99
63051;SHT30;49136;47.416;19.402;2023-02-03T02:59:20;-2.01;99.25
63051;SHT30;49136;47.416;19.402;2023-02-03T03:01:45;-2.13;99.27
63051;SHT30;49136;47.416;19.402;2023-02-03T03:04:12;-2.29;99.80
63051;SHT30;49136;47.416;19.402;2023-02-03T03:07:19;-2.39;99.81
63051;SHT30;49136;47.416;19.402;2023-02-03T03:09:50;-2.39;99.84
63051;SHT30;49136;47.416;19.402;2023-02-03T03:12:20;-2.29;99.54
63051;SHT30;49136;47.416;19.402;2023-02-03T03:14:54;-2.30;99.25
63051;SHT30;49136;47.416;19.402;2023-02-03T03:17:52;-2.33;99.24
63051;SHT30;49136;47.416;19.402;2023-02-03T03:20:23;-2.40;99.01
63051;SHT30;49136;47.416;19.402;2023-02-03T03:23:00;-2.19;98.47
63051;SHT30;49136;47.416;19.402;2023-02-03T03:25:33;-2.05;97.26
63051;SHT30;49136;47.416;19.402;2023-02-03T03:28:48;-2.01;96.76
63051;SHT30;49136;47.416;19.402;2023-02-03T03:31:15;-1.75;95.43
63051;SHT30;49136;47.416;19.402;2023-02-03T03:33:42;-1.52;94.61
63051;SHT30;49136;47.416;19.402;2023-02-03T03:47:50;-1.57;93.22
63051;SHT30;49136;47.416;19.402;2023-02-03T03:50:21;-1.55;93.28
63051;SHT30;49136;47.416;19.402;2023-02-03T03:52:48;-1.71;93.64
63051;SHT30;49136;47.416;19.402;2023-02-03T03:55:17;-1.87;94.11
63051;SHT30;49136;47.416;19.402;2023-02-03T03:58:15;-1.95;94.48
63051;SHT30;49136;47.416;19.402;2023-02-03T04:00:43;-2.10;94.81
63051;SHT30;49136;47.416;19.402;2023-02-03T04:03:19;-2.23;95.48
63051;SHT30;49136;47.416;19.402;2023-02-03T04:06:16;-2.33;96.16
63051;SHT30;49136;47.416;19.402;2023-02-03T04:08:41;-2.50;96.46
63051;SHT30;49136;47.416;19.402;2023-02-03T04:11:07;-2.62;96.66
63051;SHT30;49136;47.416;19.402;2023-02-03T04:13:33;-2.69;97.21
63051;SHT30;49136;47.416;19.402;2023-02-03T04:16:11;-2.71;98.34
63051;SHT30;49136;47.416;19.402;2023-02-03T04:18:37;-2.54;97.57
63051;SHT30;49136;47.416;19.402;2023-02-03T04:21:02;-2.68;97.75
63051;SHT30;49136;47.416;19.402;2023-02-03T04:23:28;-2.78;98.18
63051;SHT30;49136;47.416;19.402;2023-02-03T04:26:07;-2.82;98.73
63051;SHT30;49136;47.416;19.402;2023-02-03T04:28:32;-2.92;99.00
63051;SHT30;49136;47.416;19.402;2023-02-03T04:31:01;-2.82;98.84
63051;SHT30;49136;47.416;19.402;2023-02-03T04:33:26;-2.96;99.30
63051;SHT30;49136;47.416;19.402;2023-02-03T04:35:57;-3.04;99.64
63051;SHT30;49136;47.416;19.402;2023-02-03T04:38:22;-3.13;99.60
63051;SHT30;49136;47.416;19.402;2023-02-03T04:40:48;-3.10;99.45
63051;SHT30;49136;47.416;19.402;2023-02-03T04:43:14;-2.97;99.17
63051;SHT30;49136;47.416;19.402;2023-02-03T04:49:03;-2.56;96.10
63051;SHT30;49136;47.416;19.402;2023-02-03T04:51:28;-2.49;95.86
63051;SHT30;49136;47.416;19.402;2023-02-03T04:53:53;-2.40;95.52
63051;SHT30;49136;47.416;19.402;2023-02-03T04:56:30;-2.46;95.46
63051;SHT30;49136;47.416;19.402;2023-02-03T04:58:55;-2.47;95.31
63051;SHT30;49136;47.416;19.402;2023-02-03T05:01:21;-2.51;95.53
63051;SHT30;49136;47.416;19.402;2023-02-03T05:03:46;-2.33;95.31
63051;SHT30;49136;47.416;19.402;2023-02-03T05:06:21;-2.25;95.24
63051;SHT30;49136;47.416;19.402;2023-02-03T05:08:47;-2.34;95.73
63051;SHT30;49136;47.416;19.402;2023-02-03T05:11:12;-2.43;96.00
63051;SHT30;49136;47.416;19.402;2023-02-03T05:13:39;-2.40;96.13
63051;SHT30;49136;47.416;19.402;2023-02-03T05:16:23;-2.40;96.68
63051;SHT30;49136;47.416;19.402;2023-02-03T05:18:49;-2.47;96.49
63051;SHT30;49136;47.416;19.402;2023-02-03T05:21:14;-2.37;97.09
63051;SHT30;49136;47.416;19.402;2023-02-03T05:23:40;-2.40;96.65
63051;SHT30;49136;47.416;19.402;2023-02-03T05:26:09;-2.36;96.61
63051;SHT30;49136;47.416;19.402;2023-02-03T05:28:35;-2.39;96.37
63051;SHT30;49136;47.416;19.402;2023-02-03T05:31:01;-2.26;96.66
63051;SHT30;49136;47.416;19.402;2023-02-03T05:33:27;-2.09;95.09
63051;SHT30;49136;47.416;19.402;2023-02-03T05:36:08;-2.28;96.48
63051;SHT30;49136;47.416;19.402;2023-02-03T05:38:34;-2.32;96.55
63051;SHT30;49136;47.416;19.402;2023-02-03T05:40:59;-1.97;94.94
63051;SHT30;49136;47.416;19.402;2023-02-03T05:44:03;-1.70;93.67
63051;SHT30;49136;47.416;19.402;2023-02-03T05:46:36;-1.56;92.28
63051;SHT30;49136;47.416;19.402;2023-02-03T05:49:02;-1.36;91.18
63051;SHT30;49136;47.416;19.402;2023-02-03T05:51:27;-1.32;90.53
63051;SHT30;49136;47.416;19.402;2023-02-03T05:53:53;-0.94;88.52
63051;SHT30;49136;47.416;19.402;2023-02-03T05:56:18;-0.88;87.83
63051;SHT30;49136;47.416;19.402;2023-02-03T05:59:08;-0.96;88.50
63051;SHT30;49136;47.416;19.402;2023-02-03T06:01:33;-1.01;88.66
63051;SHT30;49136;47.416;19.402;2023-02-03T06:04:00;-1.08;89.36
63051;SHT30;49136;47.416;19.402;2023-02-03T06:06:26;-1.16;90.01
63051;SHT30;49136;47.416;19.402;2023-02-03T06:09:33;-1.24;90.44
63051;SHT30;49136;47.416;19.402;2023-02-03T06:11:59;-1.31;91.35
63051;SHT30;49136;47.416;19.402;2023-02-03T06:14:24;-1.32;90.98
63051;SHT30;49136;47.416;19.402;2023-02-03T06:17:04;-1.35;91.74
63051;SHT30;49136;47.416;19.402;2023-02-03T06:19:29;-1.34;91.22
63051;SHT30;49136;47.416;19.402;2023-02-03T06:21:55;-1.27;90.22
63051;SHT30;49136;47.416;19.402;2023-02-03T06:24:20;-1.08;89.39
63051;SHT30;49136;47.416;19.402;2023-02-03T06:26:47;-1.03;88.88
63051;SHT30;49136;47.416;19.402;2023-02-03T06:29:13;-0.96;88.85
63051;SHT30;49136;47.416;19.402;2023-02-03T06:31:38;-0.98;89.23
63051;SHT30;49136;47.416;19.402;2023-02-03T06:34:04;-0.96;89.14
63051;SHT30;49136;47.416;19.402;2023-02-03T06:36:29;-0.97;89.28
63051;SHT30;49136;47.416;19.402;2023-02-03T06:38:55;-1.01;90.11
63051;SHT30;49136;47.416;19.402;2023-02-03T06:41:20;-1.04;90.26
63051;SHT30;49136;47.416;19.402;2023-02-03T06:43:51;-1.07;91.37
63051;SHT30;49136;47.416;19.402;2023-02-03T06:46:22;-1.05;91.50
63051;SHT30;49136;47.416;19.402;2023-02-03T06:48:47;-1.01;91.78
63051;SHT30;49136;47.416;19.402;2023-02-03T06:51:12;-0.97;91.14
63051;SHT30;49136;47.416;19.402;2023-02-03T06:53:38;-0.97;91.12
63051;SHT30;49136;47.416;19.402;2023-02-03T06:56:03;-0.96;92.04
63051;SHT30;49136;47.416;19.402;2023-02-03T06:58:29;-0.96;92.92
63051;SHT30;49136;47.416;19.402;2023-02-03T07:00:55;-0.93;93.44
63051;SHT30;49136;47.416;19.402;2023-02-03T07:03:20;-0.93;93.78
63051;SHT30;49136;47.416;19.402;2023-02-03T07:05:46;-0.94;93.87
63051;SHT30;49136;47.416;19.402;2023-02-03T07:08:11;-0.93;94.03
63051;SHT30;49136;47.416;19.402;2023-02-03T07:10:37;-0.87;93.34
63051;SHT30;49136;47.416;19.402;2023-02-03T07:13:04;-0.83;93.15
63051;SHT30;49136;47.416;19.402;2023-02-03T07:15:30;-0.79;92.65
63051;SHT30;49136;47.416;19.402;2023-02-03T07:18:03;-0.73;92.21
63051;SHT30;49136;47.416;19.402;2023-02-03T07:20:28;-0.69;92.76
63051;SHT30;49136;47.416;19.402;2023-02-03T07:22:55;-0.63;92.55
63051;SHT30;49136;47.416;19.402;2023-02-03T07:25:22;-0.63;93.39
63051;SHT30;49136;47.416;19.402;2023-02-03T07:27:50;-0.58;93.24
63051;SHT30;49136;47.416;19.402;2023-02-03T07:30:15;-0.48;92.92
63051;SHT30;49136;47.416;19.402;2023-02-03T07:32:46;-0.38;91.93
63051;SHT30;49136;47.416;19.402;2023-02-03T07:35:12;-0.29;91.26
63051;SHT30;49136;47.416;19.402;2023-02-03T07:37:44;-0.22;91.10
63051;SHT30;49136;47.416;19.402;2023-02-03T07:40:11;-0.10;91.25
63051;SHT30;49136;47.416;19.402;2023-02-03T07:42:41;-0.03;90.56
63051;SHT30;49136;47.416;19.402;2023-02-03T07:45:08;0.07;90.26
63051;SHT30;49136;47.416;19.402;2023-02-03T07:47:56;0.17;90.13
63051;SHT30;49136;47.416;19.402;2023-02-03T07:50:21;0.21;90.22
63051;SHT30;49136;47.416;19.402;2023-02-03T07:52:49;0.29;89.87
63051;SHT30;49136;47.416;19.402;2023-02-03T07:55:14;0.35;90.35
63051;SHT30;49136;47.416;19.402;2023-02-03T07:57:41;0.38;90.07
63051;SHT30;49136;47.416;19.402;2023-02-03T08:00:09;0.41;90.46
63051;SHT30;49136;47.416;19.402;2023-02-03T08:02:35;0.46;90.44
63051;SHT30;49136;47.416;19.402;2023-02-03T08:05:00;0.52;89.88
63051;SHT30;49136;47.416;19.402;2023-02-03T08:10:17;0.55;89.74
63051;SHT30;49136;47.416;19.402;2023-02-03T08:12:43;0.52;89.20
63051;SHT30;49136;47.416;19.402;2023-02-03T08:15:09;0.52;89.41
63051;SHT30;49136;47.416;19.402;2023-02-03T08:17:35;0.49;89.35
63051;SHT30;49136;47.416;19.402;2023-02-03T08:20:01;0.49;89.77
63051;SHT30;49136;47.416;19.402;2023-02-03T08:22:26;0.52;90.26
63051;SHT30;49136;47.416;19.402;2023-02-03T08:24:52;0.53;90.17
63051;SHT30;49136;47.416;19.402;2023-02-03T08:27:24;0.52;90.42
63051;SHT30;49136;47.416;19.402;2023-02-03T08:29:50;0.53;90.51
63051;SHT30;49136;47.416;19.402;2023-02-03T08:32:17;0.58;90.59
63051;SHT30;49136;47.416;19.402;2023-02-03T08:34:44;0.60;90.16
63051;SHT30;49136;47.416;19.402;2023-02-03T08:37:17;0.65;89.86
63051;SHT30;49136;47.416;19.402;2023-02-03T08:39:43;0.70;90.37
63051;SHT30;49136;47.416;19.402;2023-02-03T08:42:08;0.73;90.03
63051;SHT30;49136;47.416;19.402;2023-02-03T08:44:34;0.79;89.98
63051;SHT30;49136;47.416;19.402;2023-02-03T08:47:00;0.83;89.71
63051;SHT30;49136;47.416;19.402;2023-02-03T08:49:56;0.83;89.61
63051;SHT30;49136;47.416;19.402;2023-02-03T08:52:21;0.87;89.91
63051;SHT30;49136;47.416;19.402;2023-02-03T08:54:47;0.87;89.84
63051;SHT30;49136;47.416;19.402;2023-02-03T08:57:12;0.88;90.14
63051;SHT30;49136;47.416;19.402;2023-02-03T08:59:46;0.91;89.98
63051;SHT30;49136;47.416;19.402;2023-02-03T09:02:17;0.93;90.01
63051;SHT30;49136;47.416;19.402;2023-02-03T09:04:44;0.94;90.44
63051;SHT30;49136;47.416;19.402;2023-02-03T09:07:19;0.95;90.63
63051;SHT30;49136;47.416;19.402;2023-02-03T09:09:44;0.98;90.42
63051;SHT30;49136;47.416;19.402;2023-02-03T09:12:10;1.04;90.09
63051;SHT30;49136;47.416;19.402;2023-02-03T09:14:37;1.07;90.75
63051;SHT30;49136;47.416;19.402;2023-02-03T09:17:23;1.14;90.36
63051;SHT30;49136;47.416;19.402;2023-02-03T09:19:48;1.15;90.28
63051;SHT30;49136;47.416;19.402;2023-02-03T09:22:14;1.22;88.99
63051;SHT30;49136;47.416;19.402;2023-02-03T09:24:39;1.25;88.79
63051;SHT30;49136;47.416;19.402;2023-02-03T09:27:05;1.39;88.62
63051;SHT30;49136;47.416;19.402;2023-02-03T09:29:40;1.40;88.79
63051;SHT30;49136;47.416;19.402;2023-02-03T09:32:07;1.52;88.64
63051;SHT30;49136;47.416;19.402;2023-02-03T09:34:35;1.53;89.60
63051;SHT30;49136;47.416;19.402;2023-02-03T09:37:24;1.52;90.82
63051;SHT30;49136;47.416;19.402;2023-02-03T09:39:50;1.36;92.73
63051;SHT30;49136;47.416;19.402;2023-02-03T09:42:35;1.35;93.79
63051;SHT30;49136;47.416;19.402;2023-02-03T09:45:22;1.21;95.34
63051;SHT30;49136;47.416;19.402;2023-02-03T09:47:51;1.05;96.85
63051;SHT30;49136;47.416;19.402;2023-02-03T09:50:23;1.07;97.06
63051;SHT30;49136;47.416;19.402;2023-02-03T09:52:51;0.93;97.89
63051;SHT30;49136;47.416;19.402;2023-02-03T09:55:29;0.90;98.48
63051;SHT30;49136;47.416;19.402;2023-02-03T09:58:05;0.88;98.74
63051;SHT30;49136;47.416;19.402;2023-02-03T10:03:46;0.81;99.80
63051;SHT30;49136;47.416;19.402;2023-02-03T10:09:13;0.98;99.89
63051;SHT30;49136;47.416;19.402;2023-02-03T10:20:42;1.46;99.46
63051;SHT30;49136;47.416;19.402;2023-02-03T10:23:34;1.63;98.90
63051;SHT30;49136;47.416;19.402;2023-02-03T10:26:07;1.70;98.62
63051;SHT30;49136;47.416;19.402;2023-02-03T10:28:53;1.70;98.65
63051;SHT30;49136;47.416;19.402;2023-02-03T10:31:22;1.89;98.39
63051;SHT30;49136;47.416;19.402;2023-02-03T10:33:57;1.99;97.97
63051;SHT30;49136;47.416;19.402;2023-02-03T10:36:37;1.97;97.82
63051;SHT30;49136;47.416;19.402;2023-02-03T10:42:33;1.82;98.32
63051;SHT30;49136;47.416;19.402;2023-02-03T10:45:17;1.68;98.65
63051;SHT30;49136;47.416;19.402;2023-02-03T10:47:50;1.53;99.32
63051;SHT30;49136;47.416;19.402;2023-02-03T10:50:24;1.42;99.90
63051;SHT30;49136;47.416;19.402;2023-02-03T10:55:45;1.43;99.99
63051;SHT30;49136;47.416;19.402;2023-02-03T10:58:18;1.54;99.99
63051;SHT30;49136;47.416;19.402;2023-02-03T11:01:02;1.64;99.91
63051;SHT30;49136;47.416;19.402;2023-02-03T11:03:29;1.66;99.70
63051;SHT30;49136;47.416;19.402;2023-02-03T11:06:10;1.73;99.77
63051;SHT30;49136;47.416;19.402;2023-02-03T11:08:54;1.87;99.45
63051;SHT30;49136;47.416;19.402;2023-02-03T11:11:33;1.84;99.39
63051;SHT30;49136;47.416;19.402;2023-02-03T11:16:29;1.71;99.50
63051;SHT30;49136;47.416;19.402;2023-02-03T11:19:33;1.75;99.81
63051;SHT30;49136;47.416;19.402;2023-02-03T11:22:00;1.97;99.31
63051;SHT30;49136;47.416;19.402;2023-02-03T11:24:32;1.97;99.21
63051;SHT30;49136;47.416;19.402;2023-02-03T11:27:16;2.04;98.83
63051;SHT30;49136;47.416;19.402;2023-02-03T11:29:45;2.04;98.84
63051;SHT30;49136;47.416;19.402;2023-02-03T11:32:35;1.91;99.27
63051;SHT30;49136;47.416;19.402;2023-02-03T11:35:15;2.01;98.98
63051;SHT30;49136;47.416;19.402;2023-02-03T11:40:38;1.84;99.63
63051;SHT30;49136;47.416;19.402;2023-02-03T11:43:16;1.87;99.65
63051;SHT30;49136;47.416;19.402;2023-02-03T11:45:46;1.84;99.86
63051;SHT30;49136;47.416;19.402;2023-02-03T11:48:36;1.84;99.87
63051;SHT30;49136;47.416;19.402;2023-02-03T11:54:10;1.71;99.99
63051;SHT30;49136;47.416;19.402;2023-02-03T11:59:34;1.64;99.99
63051;SHT30;49136;47.416;19.402;2023-02-03T12:05:26;1.61;99.99
63051;SHT30;49136;47.416;19.402;2023-02-03T12:08:35;1.70;99.99
63051;SHT30;49136;47.416;19.402;2023-02-03T16:39:15;2.26;99.99
63051;SHT30;49136;47.416;19.402;2023-02-03T16:42:10;2.28;99.99
63051;SHT30;49136;47.416;19.402;2023-02-03T16:44:56;2.29;99.99
63051;SHT30;49136;47.416;19.402;2023-02-03T16:47:40;2.25;99.99
63051;SHT30;49136;47.416;19.402;2023-02-03T16:50:24;2.19;99.99
63051;SHT30;49136;47.416;19.402;2023-02-03T16:53:17;2.29;99.99
63051;SHT30;49136;47.416;19.402;2023-02-03T16:55:45;2.46;99.99
63051;SHT30;49136;47.416;19.402;2023-02-03T16:58:11;2.51;99.99
63051;SHT30;49136;47.416;19.402;2023-02-03T17:00:42;2.61;99.99
63051;SHT30;49136;47.416;19.402;2023-02-03T17:03:13;2.62;99.99
63051;SHT30;49136;47.416;19.402;2023-02-03T17:06:02;2.60;99.99
63051;SHT30;49136;47.416;19.402;2023-02-03T17:08:28;2.61;99.99
63051;SHT30;49136;47.416;19.402;2023-02-03T17:10:54;2.54;99.99
63051;SHT30;49136;47.416;19.402;2023-02-03T17:13:20;2.55;99.99
63051;SHT30;49136;47.416;19.402;2023-02-03T17:16:14;2.58;99.99
63051;SHT30;49136;47.416;19.402;2023-02-03T17:18:41;2.55;99.99
63051;SHT30;49136;47.416;19.402;2023-02-03T17:21:09;2.60;99.99
63051;SHT30;49136;47.416;19.402;2023-02-03T17:23:37;2.60;99.99
63051;SHT30;49136;47.416;19.402;2023-02-03T17:26:26;2.55;99.99
63051;SHT30;49136;47.416;19.402;2023-02-03T17:28:52;2.48;99.99
63051;SHT30;49136;47.416;19.402;2023-02-03T17:31:19;2.54;99.99
63051;SHT30;49136;47.416;19.402;2023-02-03T17:33:48;2.50;99.99
63051;SHT30;49136;47.416;19.402;2023-02-03T17:36:27;2.50;99.99
63051;SHT30;49136;47.416;19.402;2023-02-03T17:38:54;2.50;99.99
63051;SHT30;49136;47.416;19.402;2023-02-03T17:41:22;2.48;99.99
63051;SHT30;49136;47.416;19.402;2023-02-03T17:43:48;2.46;99.99
63051;SHT30;49136;47.416;19.402;2023-02-03T17:46:21;2.47;99.99
63051;SHT30;49136;47.416;19.402;2023-02-03T17:48:47;2.43;99.99
63051;SHT30;49136;47.416;19.402;2023-02-03T17:51:20;2.50;99.99
63051;SHT30;49136;47.416;19.402;2023-02-03T17:53:47;2.44;99.99
63051;SHT30;49136;47.416;19.402;2023-02-03T17:56:21;2.51;99.99
63051;SHT30;49136;47.416;19.402;2023-02-03T17:58:59;2.57;99.99
63051;SHT30;49136;47.416;19.402;2023-02-03T18:01:25;2.53;99.99
63051;SHT30;49136;47.416;19.402;2023-02-03T18:03:54;2.54;99.99
63051;SHT30;49136;47.416;19.402;2023-02-03T18:06:25;2.61;99.99
63051;SHT30;49136;47.416;19.402;2023-02-03T18:08:52;2.62;99.99
63051;SHT30;49136;47.416;19.402;2023-02-03T18:11:19;2.65;99.99
63051;SHT30;49136;47.416;19.402;2023-02-03T18:13:46;2.65;99.99
63051;SHT30;49136;47.416;19.402;2023-02-03T18:16:22;2.64;99.99
63051;SHT30;49136;47.416;19.402;2023-02-03T18:18:51;2.71;99.99
63051;SHT30;49136;47.416;19.402;2023-02-03T18:21:18;2.72;99.99
63051;SHT30;49136;47.416;19.402;2023-02-03T18:23:50;2.74;99.99
63051;SHT30;49136;47.416;19.402;2023-02-03T18:26:58;2.77;99.99
63051;SHT30;49136;47.416;19.402;2023-02-03T18:29:27;2.81;99.99
63051;SHT30;49136;47.416;19.402;2023-02-03T18:31:53;2.82;99.99
63051;SHT30;49136;47.416;19.402;2023-02-03T18:34:19;2.85;99.99
63051;SHT30;49136;47.416;19.402;2023-02-03T18:36:58;2.85;99.99
63051;SHT30;49136;47.416;19.402;2023-02-03T18:39:24;2.89;99.99
63051;SHT30;49136;47.416;19.402;2023-02-03T18:41:50;2.88;99.99
63051;SHT30;49136;47.416;19.402;2023-02-03T18:44:16;2.95;99.99
63051;SHT30;49136;47.416;19.402;2023-02-03T18:46:51;2.93;99.99
63051;SHT30;49136;47.416;19.402;2023-02-03T18:49:20;2.95;99.99
63051;SHT30;49136;47.416;19.402;2023-02-03T18:51:46;2.96;99.99
63051;SHT30;49136;47.416;19.402;2023-02-03T18:54:12;2.96;99.99
63051;SHT30;49136;47.416;19.402;2023-02-03T18:56:39;2.99;99.99
63051;SHT30;49136;47.416;19.402;2023-02-03T18:59:07;2.98;99.99
63051;SHT30;49136;47.416;19.402;2023-02-03T19:01:37;2.98;99.99
63051;SHT30;49136;47.416;19.402;2023-02-03T19:04:03;2.92;99.99
63051;SHT30;49136;47.416;19.402;2023-02-03T19:06:44;2.91;99.99
63051;SHT30;49136;47.416;19.402;2023-02-03T19:09:12;2.88;99.99
63051;SHT30;49136;47.416;19.402;2023-02-03T19:11:40;2.87;99.99
63051;SHT30;49136;47.416;19.402;2023-02-03T19:14:07;2.75;99.99
63051;SHT30;49136;47.416;19.402;2023-02-03T19:16:42;2.79;99.99
63051;SHT30;49136;47.416;19.402;2023-02-03T19:19:08;2.75;99.99
63051;SHT30;49136;47.416;19.402;2023-02-03T19:21:36;2.77;99.99
63051;SHT30;49136;47.416;19.402;2023-02-03T19:24:03;2.79;99.99
63051;SHT30;49136;47.416;19.402;2023-02-03T19:26:29;2.81;99.99
63051;SHT30;49136;47.416;19.402;2023-02-03T19:28:54;2.78;99.99
63051;SHT30;49136;47.416;19.402;2023-02-03T19:31:22;2.87;99.99
63051;SHT30;49136;47.416;19.402;2023-02-03T19:33:49;2.79;99.99
63051;SHT30;49136;47.416;19.402;2023-02-03T19:36:17;2.78;99.99
63051;SHT30;49136;47.416;19.402;2023-02-03T19:38:43;2.72;99.99
63051;SHT30;49136;47.416;19.402;2023-02-03T19:41:10;2.74;99.99
63051;SHT30;49136;47.416;19.402;2023-02-03T19:43:37;2.81;99.99
63051;SHT30;49136;47.416;19.402;2023-02-03T19:46:21;2.78;99.99
63051;SHT30;49136;47.416;19.402;2023-02-03T19:48:49;2.82;99.99
63051;SHT30;49136;47.416;19.402;2023-02-03T19:51:22;2.89;99.99
63051;SHT30;49136;47.416;19.402;2023-02-03T19:53:49;3.12;99.99
63051;SHT30;49136;47.416;19.402;2023-02-03T19:56:19;3.14;99.99
63051;SHT30;49136;47.416;19.402;2023-02-03T19:58:51;3.13;99.99
63051;SHT30;49136;47.416;19.402;2023-02-03T20:01:22;3.27;99.99
63051;SHT30;49136;47.416;19.402;2023-02-03T20:03:52;3.26;99.99
63051;SHT30;49136;47.416;19.402;2023-02-03T20:06:29;3.35;99.99
63051;SHT30;49136;47.416;19.402;2023-02-03T20:08:57;3.37;99.99
63051;SHT30;49136;47.416;19.402;2023-02-03T20:11:33;3.35;99.99
63051;SHT30;49136;47.416;19.402;2023-02-03T20:14:05;3.26;99.99
63051;SHT30;49136;47.416;19.402;2023-02-03T20:16:53;3.24;99.99
63051;SHT30;49136;47.416;19.402;2023-02-03T20:19:39;3.19;99.99
63051;SHT30;49136;47.416;19.402;2023-02-03T20:22:08;3.05;99.99
63051;SHT30;49136;47.416;19.402;2023-02-03T20:24:38;3.05;99.99
63051;SHT30;49136;47.416;19.402;2023-02-03T20:29:59;3.16;99.99
63051;SHT30;49136;47.416;19.402;2023-02-03T20:32:31;3.22;99.99
63051;SHT30;49136;47.416;19.402;2023-02-03T20:35:00;3.17;99.99
63051;SHT30;49136;47.416;19.402;2023-02-03T20:37:29;3.07;99.99
63051;SHT30;49136;47.416;19.402;2023-02-03T20:40:00;3.10;99.99
63051;SHT30;49136;47.416;19.402;2023-02-03T20:42:30;3.00;99.99
63051;SHT30;49136;47.416;19.402;2023-02-03T20:44:58;3.16;99.99
63051;SHT30;49136;47.416;19.402;2023-02-03T20:47:31;3.20;99.99
63051;SHT30;49136;47.416;19.402;2023-02-03T20:50:01;3.33;99.34
63051;SHT30;49136;47.416;19.402;2023-02-03T20:52:31;3.34;98.77
63051;SHT30;49136;47.416;19.402;2023-02-03T20:55:04;3.26;98.88
63051;SHT30;49136;47.416;19.402;2023-02-03T20:57:39;3.19;99.52
63051;SHT30;49136;47.416;19.402;2023-02-03T21:00:21;3.13;99.73
63051;SHT30;49136;47.416;19.402;2023-02-03T21:02:51;3.02;99.99
63051;SHT30;49136;47.416;19.402;2023-02-03T21:05:41;3.06;99.99
63051;SHT30;49136;47.416;19.402;2023-02-03T21:08:30;2.79;99.99
63051;SHT30;49136;47.416;19.402;2023-02-03T21:11:01;2.85;99.99
63051;SHT30;49136;47.416;19.402;2023-02-03T21:13:37;2.87;99.99
63051;SHT30;49136;47.416;19.402;2023-02-03T21:16:24;2.88;99.99
63051;SHT30;49136;47.416;19.402;2023-02-03T21:18:53;2.89;99.99
63051;SHT30;49136;47.416;19.402;2023-02-03T21:21:37;2.82;99.99
63051;SHT30;49136;47.416;19.402;2023-02-03T21:24:28;2.70;99.99
63051;SHT30;49136;47.416;19.402;2023-02-03T21:29:51;2.87;99.99
63051;SHT30;49136;47.416;19.402;2023-02-03T21:32:22;2.92;99.99
63051;SHT30;49136;47.416;19.402;2023-02-03T21:34:48;2.89;99.99
63051;SHT30;49136;47.416;19.402;2023-02-03T21:39:59;2.91;99.99
63051;SHT30;49136;47.416;19.402;2023-02-03T21:42:32;2.98;99.99
63051;SHT30;49136;47.416;19.402;2023-02-03T21:47:43;2.89;99.99
63051;SHT30;49136;47.416;19.402;2023-02-03T21:52:54;3.02;99.89
63051;SHT30;49136;47.416;19.402;2023-02-03T21:55:20;3.06;99.61
63051;SHT30;49136;47.416;19.402;2023-02-03T21:57:48;3.02;99.65
63051;SHT30;49136;47.416;19.402;2023-02-03T22:00:34;2.96;99.69
63051;SHT30;49136;47.416;19.402;2023-02-03T22:03:01;3.03;99.35